Time;durP1;ratioP1;P1;durP2;ratioP2;P2;SDS_P1;SDS_P2;PMS_P1;PMS_P2;Temp;Humidity;BMP_temperature;BMP_pressure;BME280_temperature;BME280_humidity;BME280_pressure;Samples;Min_cycle;Max_cycle;Signal;HPM_P1;HPM_P2
2023/05/18 00:02:20;;;;;;;1.95;1.08;;;;;;;23.91;42.68;99713.06;4259815;33;33876;-64
2023/05/18 00:04:48;;;;;;;3.53;1.42;;;;;;;23.90;42.68;99703.22;4259559;33;34934;-65
2023/05/18 00:07:15;;;;;;;4.82;1.33;;;;;;;23.89;42.58;99704.31;4259726;33;34697;-65
2023/05/18 00:09:43;;;;;;;3.03;1.40;;;;;;;23.89;42.34;99709.75;4260088;33;33454;-64
2023/05/18 00:12:11;;;;;;;3.85;1.25;;;;;;;23.88;42.32;99707.28;4259636;33;33998;-65
2023/05/18 00:14:38;;;;;;;3.62;1.55;;;;;;;23.88;42.34;99705.38;4259747;33;34156;-64
2023/05/18 00:17:06;;;;;;;3.58;1.35;;;;;;;23.88;42.23;99702.66;4259598;33;33695;-65
2023/05/18 00:19:33;;;;;;;3.53;1.20;;;;;;;23.86;42.17;99703.94;4259616;33;33459;-65
2023/05/18 00:22:01;;;;;;;3.83;1.20;;;;;;;23.86;42.21;99706.66;4259621;33;33646;-65
2023/05/18 00:24:47;;;;;;;2.30;1.50;;;;;;;23.85;42.17;99699.53;4259712;33;34040;-65
2023/05/18 00:27:14;;;;;;;5.68;1.50;;;;;;;23.83;42.09;99707.97;4259581;33;33977;-65
2023/05/18 00:29:41;;;;;;;3.03;1.30;;;;;;;23.82;42.06;99710.91;4259620;33;33326;-64
2023/05/18 00:32:11;;;;;;;2.15;1.40;;;;;;;23.82;42.02;99708.19;4259362;33;34821;-64
2023/05/18 00:34:38;;;;;;;4.18;1.77;;;;;;;23.83;42.01;99709.84;4259451;33;33927;-65
2023/05/18 00:37:06;;;;;;;2.85;1.40;;;;;;;23.81;41.92;99709.25;4259733;33;34059;-64
2023/05/18 00:39:34;;;;;;;1.92;1.20;;;;;;;23.81;41.95;99709.25;4259283;33;32903;-64
2023/05/18 00:42:02;;;;;;;2.70;1.30;;;;;;;23.80;41.91;99711.13;4259396;33;34677;-64
2023/05/18 00:44:29;;;;;;;1.98;1.12;;;;;;;23.79;41.89;99714.94;4259414;33;34282;-65
2023/05/18 00:46:58;;;;;;;3.78;1.73;;;;;;;23.79;41.93;99705.94;4259216;33;33880;-64
2023/05/18 00:49:26;;;;;;;1.83;0.95;;;;;;;23.78;41.87;99715.12;4259419;33;33575;-64
2023/05/18 00:51:53;;;;;;;3.50;1.75;;;;;;;23.77;41.87;99721.66;4259277;33;33499;-65
2023/05/18 00:54:25;;;;;;;2.67;1.25;;;;;;;23.76;41.89;99715.38;4259151;33;33810;-65
2023/05/18 00:56:52;;;;;;;2.72;1.40;;;;;;;23.75;41.83;99716.44;4258985;33;34060;-64
2023/05/18 00:59:20;;;;;;;3.65;1.35;;;;;;;23.77;41.78;99716.22;4259157;33;33751;-64
2023/05/18 01:01:48;;;;;;;1.80;1.30;;;;;;;23.76;41.76;99718.09;4259344;33;34714;-65
2023/05/18 01:04:16;;;;;;;3.20;1.58;;;;;;;23.75;41.78;99721.06;4257851;33;34760;-64
2023/05/18 01:06:45;;;;;;;3.12;1.33;;;;;;;23.74;41.80;99722.16;4259199;33;33956;-64
2023/05/18 01:09:13;;;;;;;3.53;1.30;;;;;;;23.73;41.78;99715.84;4272957;33;34234;-65
2023/05/18 01:11:59;;;;;;;3.17;1.73;;;;;;;23.73;41.78;99715.84;4273198;33;34730;-64
2023/05/18 01:14:33;;;;;;;2.72;1.42;;;;;;;23.75;41.79;99727.34;4261963;33;33813;-64
2023/05/18 01:17:13;;;;;;;4.37;1.33;;;;;;;23.72;41.90;99726.97;4251005;33;33614;-65
2023/05/18 01:19:51;;;;;;;3.60;1.55;;;;;;;23.70;41.93;99727.22;4275126;33;33719;-64
2023/05/18 01:23:00;;;;;;;5.37;1.70;;;;;;;23.71;41.80;99726.16;4275291;33;33854;-64
2023/05/18 01:25:57;;;;;;;;;;;;;;;23.72;41.73;99727.81;4275523;33;34031;-64
2023/05/18 01:28:28;;;;;;;2.50;1.40;;;;;;;23.79;41.54;99735.91;4262989;33;33933;-64
2023/05/18 01:30:56;;;;;;;3.92;1.33;;;;;;;23.68;41.67;99730.16;4250733;33;33045;-64
2023/05/18 01:33:24;;;;;;;2.10;1.20;;;;;;;23.66;41.75;99723.28;4262285;33;35040;-64
2023/05/18 01:35:52;;;;;;;1.60;1.20;;;;;;;23.65;41.72;99730.62;4275140;33;34897;-65
2023/05/18 01:38:22;;;;;;;2.97;1.58;;;;;;;23.65;41.70;99738.81;4274960;33;34017;-64
2023/05/18 01:41:15;;;;;;;4.28;1.80;;;;;;;23.65;41.67;99735.25;4262226;33;33162;-64
2023/05/18 01:44:02;;;;;;;1.92;1.37;;;;;;;23.67;41.63;99742.09;4262296;33;33572;-64
2023/05/18 01:46:48;;;;;;;3.47;1.55;;;;;;;23.66;41.78;99737.72;4275089;33;34985;-65
2023/05/18 01:49:23;;;;;;;2.78;1.20;;;;;;;23.63;41.87;99746.31;4251406;33;34902;-64
2023/05/18 01:51:51;;;;;;;3.80;1.70;;;;;;;23.62;41.92;99741.09;4262198;33;33600;-64
2023/05/18 01:54:19;;;;;;;2.90;1.40;;;;;;;23.63;41.80;99745.50;4261942;33;33447;-65
2023/05/18 01:56:47;;;;;;;3.70;1.48;;;;;;;23.62;41.78;99752.84;4261961;33;33946;-65
2023/05/18 01:59:14;;;;;;;2.70;1.40;;;;;;;23.62;41.71;99755.56;4262010;33;34004;-64
2023/05/18 02:01:43;;;;;;;2.10;1.30;;;;;;;23.62;41.75;99758.28;4261932;33;33594;-64
2023/05/18 02:04:11;;;;;;;5.87;1.62;;;;;;;23.62;41.75;99755.56;4274882;33;33794;-64
2023/05/18 02:06:39;;;;;;;2.80;1.50;;;;;;;23.63;41.76;99761.84;4274960;33;34685;-64
2023/05/18 02:09:07;;;;;;;2.62;1.40;;;;;;;23.61;41.78;99756.63;4261676;33;33516;-64
2023/05/18 02:11:35;;;;;;;3.92;1.55;;;;;;;23.61;41.79;99756.63;4260926;33;33250;-64
2023/05/18 02:14:03;;;;;;;2.97;1.40;;;;;;;23.62;41.75;99760.19;4260819;33;33870;-64
2023/05/18 02:16:30;;;;;;;4.45;1.50;;;;;;;23.60;41.68;99760.41;4260744;33;33999;-64
2023/05/18 02:18:59;;;;;;;1.83;1.20;;;;;;;23.60;41.71;99768.59;4259346;33;33926;-65
2023/05/18 02:21:26;;;;;;;3.35;1.58;;;;;;;23.59;41.63;99769.62;4260562;33;33264;-64
2023/05/18 02:23:54;;;;;;;6.35;1.55;;;;;;;23.61;41.64;99772.97;4260382;33;33707;-64
2023/05/18 02:26:21;;;;;;;2.05;1.40;;;;;;;23.60;41.60;99765.88;4259986;33;33618;-65
2023/05/18 02:28:51;;;;;;;3.30;1.40;;;;;;;23.62;41.56;99771.06;4260507;33;34693;-64
2023/05/18 02:31:37;;;;;;;3.50;1.50;;;;;;;23.62;41.53;99771.06;4259748;33;33359;-64
2023/05/18 02:34:05;;;;;;;2.42;1.40;;;;;;;23.61;41.52;99762.06;4260469;33;34102;-64
2023/05/18 02:36:38;;;;;;;4.43;1.75;;;;;;;23.60;41.55;99776.75;4260480;33;33681;-65
2023/05/18 02:39:07;;;;;;;2.60;1.60;;;;;;;23.59;41.55;99772.34;4260362;33;34792;-65
2023/05/18 02:41:35;;;;;;;2.85;1.60;;;;;;;23.60;41.57;99773.19;4260319;33;34520;-64
2023/05/18 02:44:03;;;;;;;4.35;1.73;;;;;;;23.59;41.51;99775.06;4260636;33;34542;-65
2023/05/18 02:46:31;;;;;;;2.78;1.50;;;;;;;23.59;41.52;99779.69;4260439;33;33662;-64
2023/05/18 02:48:58;;;;;;;3.10;1.55;;;;;;;23.58;41.47;99773.41;4260557;33;34330;-65
2023/05/18 02:51:26;;;;;;;2.28;1.20;;;;;;;23.58;41.51;99778.84;4260714;33;32878;-64
2023/05/18 02:53:54;;;;;;;4.12;1.50;;;;;;;23.58;41.45;99780.75;4260692;33;33887;-63
2023/05/18 02:56:22;;;;;;;4.87;1.58;;;;;;;23.58;41.45;99786.19;4260375;33;33541;-64
2023/05/18 02:58:56;;;;;;;3.42;1.58;;;;;;;23.58;41.42;99781.59;4259415;33;33923;-65
2023/05/18 03:01:27;;;;;;;4.12;1.48;;;;;;;23.57;41.43;99769.03;4260694;33;34370;-64
2023/05/18 03:03:58;;;;;;;3.40;1.73;;;;;;;23.59;41.42;99776.97;4260196;33;34757;-64
2023/05/18 03:06:29;;;;;;;4.28;1.55;;;;;;;23.56;41.43;99778.28;4259374;33;34558;-65
2023/05/18 03:08:57;;;;;;;4.62;1.65;;;;;;;23.57;41.41;99776.38;4272518;33;33949;-64
2023/05/18 03:11:25;;;;;;;2.43;1.40;;;;;;;23.56;41.43;99781.00;4274835;33;34100;-65
2023/05/18 03:13:54;;;;;;;1.92;1.23;;;;;;;23.57;41.55;99779.94;4274773;33;34147;-65
2023/05/18 03:16:26;;;;;;;5.60;1.55;;;;;;;23.56;41.58;99780.16;4274373;33;35011;-65
2023/05/18 03:18:57;;;;;;;4.30;1.62;;;;;;;23.55;41.64;99779.34;4274696;33;34145;-64
2023/05/18 03:21:32;;;;;;;4.87;1.58;;;;;;;23.56;41.59;99788.34;4274812;33;33205;-64
2023/05/18 03:24:00;;;;;;;3.45;1.80;;;;;;;23.55;41.56;99779.34;4269379;33;33958;-65
2023/05/18 03:26:31;;;;;;;4.68;1.40;;;;;;;23.55;41.45;99781.19;4269027;33;34763;-64
2023/05/18 03:29:00;;;;;;;4.28;1.45;;;;;;;23.54;41.62;99783.09;4268869;33;33913;-64
2023/05/18 03:31:28;;;;;;;2.67;1.40;;;;;;;23.55;41.71;99786.66;4258852;33;33738;-64
2023/05/18 03:33:56;;;;;;;5.03;1.37;;;;;;;23.56;41.74;99788.34;4258565;33;34635;-64
2023/05/18 03:36:26;;;;;;;5.57;1.50;;;;;;;23.56;41.73;99791.88;4259082;33;34752;-64
2023/05/18 03:38:54;;;;;;;3.05;1.40;;;;;;;23.57;41.75;99787.28;4260092;33;33659;-64
2023/05/18 03:41:22;;;;;;;7.18;1.77;;;;;;;23.57;41.76;99793.53;4259979;33;34098;-64
2023/05/18 03:43:50;;;;;;;3.90;1.85;;;;;;;23.58;41.78;99803.37;4248069;33;34545;-63
2023/05/18 03:46:17;;;;;;;4.05;1.40;;;;;;;23.58;41.81;99794.38;4258960;33;34954;-64
2023/05/18 03:48:45;;;;;;;5.22;1.50;;;;;;;23.59;41.81;99810.47;4259237;33;34616;-64
2023/05/18 03:51:13;;;;;;;4.82;1.37;;;;;;;23.58;41.81;99803.37;4259766;33;32946;-64
2023/05/18 03:53:41;;;;;;;5.62;1.37;;;;;;;23.59;41.81;99810.47;4259210;33;34488;-64
2023/05/18 03:56:09;;;;;;;3.00;1.23;;;;;;;23.60;41.85;99805.88;4259615;33;33880;-64
2023/05/18 03:58:36;;;;;;;1.90;1.20;;;;;;;23.62;41.85;99811.94;4259682;33;34471;-64
2023/05/18 04:01:04;;;;;;;3.40;1.58;;;;;;;23.62;41.88;99814.66;4256349;33;34110;-66
2023/05/18 04:03:33;;;;;;;2.62;0.88;;;;;;;23.62;42.06;99820.09;4259602;33;34044;-66
2023/05/18 04:06:01;;;;;;;6.62;1.50;;;;;;;23.62;41.99;99820.09;4259699;33;33670;-67
2023/05/18 04:08:29;;;;;;;3.85;1.15;;;;;;;23.61;42.11;99822.00;4269041;33;34614;-65
2023/05/18 04:10:58;;;;;;;4.70;1.30;;;;;;;23.59;42.17;99824.09;4273556;33;33176;-66
2023/05/18 04:13:25;;;;;;;6.55;1.60;;;;;;;23.61;42.15;99822.00;4264286;33;33564;-66
2023/05/18 04:15:53;;;;;;;6.12;1.55;;;;;;;23.59;42.16;99815.94;4259631;33;34028;-65
2023/05/18 04:18:20;;;;;;;3.47;1.00;;;;;;;23.60;42.15;99824.97;4259223;33;34049;-66
2023/05/18 04:20:48;;;;;;;2.83;1.30;;;;;;;23.58;42.13;99825.16;4259906;33;33699;-67
2023/05/18 04:23:16;;;;;;;2.10;1.02;;;;;;;23.58;42.13;99822.44;4256215;33;34701;-66
2023/05/18 04:25:44;;;;;;;10.15;1.37;;;;;;;23.58;42.15;99827.06;4245637;33;34035;-66
2023/05/18 04:28:12;;;;;;;2.60;1.40;;;;;;;23.59;42.20;99831.44;4245369;33;33846;-65
2023/05/18 04:30:39;;;;;;;5.07;1.60;;;;;;;23.58;42.26;99830.59;4244888;33;33352;-66
2023/05/18 04:33:07;;;;;;;4.62;1.70;;;;;;;23.58;42.27;99838.78;4244184;33;33948;-66
2023/05/18 04:35:35;;;;;;;6.85;1.90;;;;;;;23.59;42.28;99836.88;4243298;33;33615;-66
2023/05/18 04:38:04;;;;;;;7.28;1.60;;;;;;;23.58;42.27;99837.94;4243471;33;33484;-65
2023/05/18 04:40:32;;;;;;;5.75;1.45;;;;;;;23.58;42.22;99843.41;4243131;33;34334;-66
2023/05/18 04:43:00;;;;;;;3.20;1.30;;;;;;;23.58;42.20;99844.22;4243431;33;33742;-68
2023/05/18 04:45:28;;;;;;;2.65;1.30;;;;;;;23.58;42.19;99841.50;4243333;33;34023;-66
2023/05/18 04:47:57;;;;;;;7.30;2.25;;;;;;;23.56;42.19;99835.47;4244066;33;33670;-66
2023/05/18 04:50:25;;;;;;;6.43;1.42;;;;;;;23.56;42.19;99838.19;4246931;33;34200;-67
2023/05/18 04:52:52;;;;;;;6.47;1.30;;;;;;;23.56;42.20;99843.63;4246979;33;34119;-66
2023/05/18 04:55:27;;;;;;;4.53;1.20;;;;;;;23.56;42.20;99838.19;4244584;33;34816;-67
2023/05/18 04:57:55;;;;;;;3.70;1.17;;;;;;;23.55;42.19;99844.69;4246883;33;34061;-67
2023/05/18 05:00:24;;;;;;;4.00;1.30;;;;;;;23.56;42.22;99845.53;4245647;33;34826;-66
2023/05/18 05:02:52;;;;;;;3.08;1.15;;;;;;;23.56;42.22;99840.09;4246814;33;34700;-68
2023/05/18 05:05:21;;;;;;;4.87;1.35;;;;;;;23.54;42.21;99848.47;4246962;33;35014;-67
2023/05/18 05:07:50;;;;;;;2.72;1.20;;;;;;;23.55;42.20;99846.56;4257589;33;34966;-67
2023/05/18 05:10:20;;;;;;;3.70;1.42;;;;;;;23.54;42.22;99845.72;4274396;33;33695;-68
2023/05/18 05:12:49;;;;;;;3.28;1.20;;;;;;;23.54;42.23;99851.19;4275178;33;33985;-67
2023/05/18 05:15:17;;;;;;;2.28;1.45;;;;;;;23.53;42.22;99854.97;4275112;33;34797;-67
2023/05/18 05:17:47;;;;;;;2.47;1.12;;;;;;;23.53;42.22;99848.69;4275180;33;34129;-67
2023/05/18 05:20:16;;;;;;;3.05;1.33;;;;;;;23.52;42.25;99856.03;4275441;33;33345;-67
2023/05/18 05:22:44;;;;;;;2.22;1.12;;;;;;;23.53;42.23;99865.03;4275017;33;33792;-67
2023/05/18 05:25:12;;;;;;;2.70;1.35;;;;;;;23.53;42.23;99860.41;4275410;33;34667;-67
2023/05/18 05:27:39;;;;;;;3.17;1.45;;;;;;;23.53;42.24;99865.03;4275409;33;33993;-67
2023/05/18 05:30:07;;;;;;;3.53;1.08;;;;;;;23.51;42.24;99857.09;4275286;33;33325;-66
2023/05/18 05:32:35;;;;;;;2.62;1.10;;;;;;;23.52;42.22;99857.94;4275338;33;33843;-67
2023/05/18 05:35:05;;;;;;;2.93;1.20;;;;;;;23.51;42.24;99862.53;4275061;33;34162;-67
2023/05/18 05:37:33;;;;;;;6.90;1.55;;;;;;;23.53;42.23;99870.47;4274909;33;33820;-68
2023/05/18 05:40:00;;;;;;;2.20;1.08;;;;;;;23.52;42.31;99866.09;4275338;33;33556;-67
2023/05/18 05:42:30;;;;;;;;;;;;;;;23.52;42.25;99871.53;4275584;33;34115;-68
2023/05/18 05:44:58;;;;;;;2.30;1.15;;;;;;;23.61;42.06;99868.31;4275391;33;34909;-67
2023/05/18 05:47:26;;;;;;;4.25;1.27;;;;;;;23.53;42.17;99870.47;4275322;33;33668;-67
2023/05/18 05:49:54;;;;;;;2.15;1.10;;;;;;;23.49;42.26;99877.44;4274841;33;33528;-68
2023/05/18 05:52:22;;;;;;;3.28;1.27;;;;;;;23.48;42.29;99876.59;4250452;33;33828;-67
2023/05/18 05:54:50;;;;;;;4.60;1.33;;;;;;;23.48;42.29;99873.88;4275210;33;33904;-67
2023/05/18 05:57:18;;;;;;;1.62;0.90;;;;;;;23.49;42.29;99880.16;4274716;33;34676;-68
2023/05/18 05:59:45;;;;;;;5.35;1.30;;;;;;;23.49;42.30;99874.72;4274947;33;34338;-67
2023/05/18 06:02:13;;;;;;;2.80;1.50;;;;;;;23.49;42.29;99878.25;4274883;33;34149;-67
2023/05/18 06:04:42;;;;;;;3.90;1.10;;;;;;;23.49;42.28;99883.72;4274954;33;34021;-67
2023/05/18 06:07:09;;;;;;;2.60;1.17;;;;;;;23.50;42.25;99893.56;4273165;33;34744;-67
2023/05/18 06:09:37;;;;;;;3.80;1.23;;;;;;;23.49;42.24;99889.16;4261040;33;34147;-67
2023/05/18 06:12:06;;;;;;;7.20;1.70;;;;;;;23.49;42.23;99891.88;4260743;33;33857;-67
2023/05/18 06:14:33;;;;;;;3.30;1.10;;;;;;;23.47;42.24;99894.00;4260835;33;33835;-66
2023/05/18 06:17:01;;;;;;;2.72;1.12;;;;;;;23.47;42.24;99896.72;4260540;33;34063;-67
2023/05/18 06:19:29;;;;;;;3.40;1.42;;;;;;;23.49;42.24;99901.94;4260408;33;33849;-65
2023/05/18 06:21:56;;;;;;;3.62;1.60;;;;;;;23.49;42.26;99908.22;4260570;33;33928;-66
2023/05/18 06:24:25;;;;;;;2.87;1.00;;;;;;;23.48;42.27;99909.28;4260814;33;34771;-66
2023/05/18 06:26:53;;;;;;;2.55;0.93;;;;;;;23.49;42.27;99904.66;4260641;33;34527;-67
2023/05/18 06:29:22;;;;;;;2.12;1.02;;;;;;;23.47;42.24;99907.63;4260733;33;34136;-66
2023/05/18 06:31:50;;;;;;;3.28;1.30;;;;;;;23.47;42.26;99904.91;4260491;33;33899;-66
2023/05/18 06:34:18;;;;;;;2.60;1.35;;;;;;;23.47;42.25;99901.34;4260573;33;33884;-68
2023/05/18 06:36:46;;;;;;;3.72;1.40;;;;;;;23.47;42.22;99912.25;4260765;33;33867;-68
2023/05/18 06:39:13;;;;;;;3.10;1.17;;;;;;;23.47;42.23;99912.25;4260517;33;33940;-67
2023/05/18 06:41:44;;;;;;;2.00;1.00;;;;;;;23.47;42.26;99917.69;4260519;33;33828;-67
2023/05/18 06:44:18;;;;;;;4.22;1.67;;;;;;;23.47;42.26;99912.25;4260660;33;34670;-67
2023/05/18 06:46:52;;;;;;;3.30;1.10;;;;;;;23.46;42.25;99914.12;4260524;33;33822;-66
2023/05/18 06:49:20;;;;;;;3.10;1.30;;;;;;;23.47;42.27;99917.69;4260713;33;33533;-68
2023/05/18 06:51:47;;;;;;;3.28;1.58;;;;;;;23.46;42.28;99921.47;4260489;33;34041;-66
2023/05/18 06:54:16;;;;;;;3.83;1.37;;;;;;;23.46;42.28;99930.47;4260406;33;34741;-67
2023/05/18 06:56:43;;;;;;;2.92;1.12;;;;;;;23.45;42.30;99931.50;4260533;33;33973;-66
2023/05/18 06:59:11;;;;;;;3.53;1.33;;;;;;;23.46;42.29;99929.66;4260466;33;32969;-67
2023/05/18 07:01:38;;;;;;;3.25;1.17;;;;;;;23.46;42.30;99932.37;4260131;33;33825;-68
2023/05/18 07:04:06;;;;;;;4.45;1.20;;;;;;;23.46;42.30;99929.66;4260628;33;33712;-67
2023/05/18 07:06:35;;;;;;;1.42;1.08;;;;;;;23.45;42.32;99933.41;4260309;33;33918;-67
2023/05/18 07:09:03;;;;;;;3.45;1.30;;;;;;;23.44;42.34;99940.75;4260099;33;33426;-67
2023/05/18 07:11:30;;;;;;;3.08;1.30;;;;;;;23.45;42.34;99936.94;4258413;33;34010;-66
2023/05/18 07:13:58;;;;;;;2.45;1.08;;;;;;;23.45;42.34;99942.41;4270910;33;34055;-66
2023/05/18 07:16:26;;;;;;;2.95;1.30;;;;;;;23.45;42.33;99939.69;4260101;33;34903;-66
2023/05/18 07:18:55;;;;;;;6.03;1.50;;;;;;;23.45;42.36;99944.28;4260329;33;33468;-66
2023/05/18 07:21:24;;;;;;;6.43;1.70;;;;;;;23.43;42.46;99942.63;4260105;33;33825;-66
2023/05/18 07:23:51;;;;;;;2.47;1.15;;;;;;;23.44;42.50;99946.19;4260161;33;34114;-68
2023/05/18 07:26:21;;;;;;;2.90;1.30;;;;;;;23.45;42.52;99949.75;4260272;33;34031;-67
2023/05/18 07:28:50;;;;;;;3.40;1.30;;;;;;;23.45;42.53;99949.75;4260595;33;34403;-67
2023/05/18 07:31:20;;;;;;;4.00;1.20;;;;;;;23.45;42.52;99947.00;4260283;33;34752;-67
2023/05/18 07:33:47;;;;;;;2.83;1.40;;;;;;;23.45;42.50;99950.56;4260186;33;34076;-68
2023/05/18 07:36:15;;;;;;;3.42;1.60;;;;;;;23.46;42.50;99954.16;4259902;33;34096;-66
2023/05/18 07:38:43;;;;;;;2.70;1.12;;;;;;;23.44;42.50;99957.06;4260122;33;33701;-67
2023/05/18 07:41:10;;;;;;;5.50;1.65;;;;;;;23.44;42.47;99957.06;4260027;33;34606;-67
2023/05/18 07:43:38;;;;;;;2.92;1.20;;;;;;;23.43;42.47;99960.88;4259846;33;34850;-68
2023/05/18 07:46:06;;;;;;;2.10;1.10;;;;;;;23.42;42.46;99962.75;4260161;33;34339;-67
2023/05/18 07:48:33;;;;;;;4.22;1.35;;;;;;;23.42;42.47;99965.47;4259945;33;33920;-68
2023/05/18 07:51:01;;;;;;;2.37;1.15;;;;;;;23.42;42.46;99968.22;4259807;33;34418;-67
2023/05/18 07:53:29;;;;;;;5.57;1.58;;;;;;;23.42;42.46;99970.94;4259995;33;34012;-66
2023/05/18 07:55:57;;;;;;;4.15;1.50;;;;;;;23.43;42.45;99969.87;4260150;33;33149;-67
2023/05/18 07:58:24;;;;;;;3.03;1.50;;;;;;;23.43;42.45;99972.59;4259816;33;33462;-67
2023/05/18 08:00:52;;;;;;;2.08;0.95;;;;;;;23.43;42.46;99961.69;4259779;33;33869;-67
2023/05/18 08:03:20;;;;;;;2.25;1.20;;;;;;;23.43;42.45;99969.03;4258480;33;34151;-67
2023/05/18 08:05:48;;;;;;;3.85;1.20;;;;;;;23.42;42.45;99967.38;4245571;33;34547;-67
2023/05/18 08:08:15;;;;;;;3.50;1.52;;;;;;;23.42;42.46;99968.22;4262022;33;34286;-66
2023/05/18 08:10:43;;;;;;;2.83;1.10;;;;;;;23.42;42.45;99967.38;4274078;33;33772;-67
2023/05/18 08:13:11;;;;;;;2.50;1.17;;;;;;;23.42;42.47;99968.22;4273899;33;33724;-67
2023/05/18 08:15:39;;;;;;;2.47;1.00;;;;;;;23.42;42.48;99967.38;4273954;33;34166;-67
2023/05/18 08:18:07;;;;;;;2.42;1.08;;;;;;;23.41;42.49;99974.72;4274052;33;33473;-67
2023/05/18 08:20:35;;;;;;;3.55;1.20;;;;;;;23.42;42.49;99976.38;4273729;33;34712;-67
2023/05/18 08:23:02;;;;;;;3.53;1.10;;;;;;;23.41;42.56;99985.59;4275062;33;33885;-68
2023/05/18 08:25:30;;;;;;;2.42;1.12;;;;;;;23.42;42.61;99978.25;4275510;33;33820;-66
2023/05/18 08:27:58;;;;;;;3.47;1.30;;;;;;;23.41;42.62;99984.78;4275379;33;33658;-66
2023/05/18 08:30:26;;;;;;;6.32;1.25;;;;;;;23.41;42.61;99982.06;4248648;33;33561;-67
2023/05/18 08:32:53;;;;;;;3.00;1.10;;;;;;;23.41;42.61;99980.16;4261122;33;33703;-68
2023/05/18 08:35:21;;;;;;;3.10;1.20;;;;;;;23.39;42.57;99987.69;4257765;33;33646;-68
2023/05/18 08:37:49;;;;;;;2.35;1.00;;;;;;;23.39;42.51;99984.16;4249123;33;33417;-68
2023/05/18 08:40:17;;;;;;;2.65;1.00;;;;;;;23.39;42.51;99981.41;4255690;33;33696;-67
2023/05/18 08:42:51;;;;;;;3.10;1.30;;;;;;;23.38;42.49;99988.75;4246877;33;35316;-67
2023/05/18 08:45:23;;;;;;;1.95;1.00;;;;;;;23.37;42.47;99989.81;4265281;33;34510;-67
2023/05/18 08:47:50;;;;;;;4.47;1.10;;;;;;;23.37;42.48;99992.53;4259720;33;34225;-67
2023/05/18 08:50:19;;;;;;;2.22;0.90;;;;;;;23.38;42.43;99991.47;4259937;33;34200;-67
2023/05/18 08:52:53;;;;;;;2.75;0.90;;;;;;;23.37;42.46;99989.00;4248720;33;34768;-67
2023/05/18 08:55:22;;;;;;;1.77;1.00;;;;;;;23.38;42.45;99987.94;4260859;33;34521;-67
2023/05/18 08:57:54;;;;;;;4.28;0.90;;;;;;;23.37;42.46;99997.16;4261336;33;33358;-67
2023/05/18 09:00:23;;;;;;;1.90;0.82;;;;;;;23.37;42.45;99989.81;4248439;33;34744;-68
2023/05/18 09:02:51;;;;;;;2.42;1.25;;;;;;;23.37;42.43;99992.53;4260982;33;33527;-67
2023/05/18 09:05:18;;;;;;;2.35;1.00;;;;;;;23.38;42.42;99990.66;4260969;33;34775;-68
2023/05/18 09:07:46;;;;;;;1.25;0.73;;;;;;;23.37;42.42;99987.09;4248190;33;34160;-66
2023/05/18 09:10:14;;;;;;;2.25;1.17;;;;;;;23.38;42.43;99990.66;4236818;33;33801;-67
2023/05/18 09:12:42;;;;;;;1.08;0.82;;;;;;;23.38;42.45;99983.31;4261337;33;33891;-67
2023/05/18 09:15:10;;;;;;;1.85;0.80;;;;;;;23.38;42.42;99987.94;4260832;33;34214;-66
2023/05/18 09:17:38;;;;;;;1.37;0.90;;;;;;;23.38;42.43;99987.94;4260805;33;33677;-67
2023/05/18 09:20:06;;;;;;;2.20;0.90;;;;;;;23.37;42.42;99981.66;4246773;33;34152;-68
2023/05/18 09:22:34;;;;;;;2.42;1.02;;;;;;;23.37;42.45;99987.09;4256966;33;34419;-68
2023/05/18 09:25:02;;;;;;;2.08;0.82;;;;;;;23.37;42.42;99989.81;4261261;33;33782;-68
2023/05/18 09:27:30;;;;;;;1.77;0.95;;;;;;;23.37;42.43;99994.44;4247973;33;33075;-67
2023/05/18 09:29:58;;;;;;;3.08;1.10;;;;;;;23.37;42.42;99991.72;4247946;33;34353;-67
2023/05/18 09:32:25;;;;;;;1.10;0.90;;;;;;;23.38;42.43;99996.94;4261074;33;34018;-66
2023/05/18 09:34:54;;;;;;;2.15;1.00;;;;;;;23.37;42.43;99992.53;4260424;33;33705;-68
2023/05/18 09:37:22;;;;;;;1.33;0.98;;;;;;;23.37;42.42;99991.72;4260854;33;34370;-67
2023/05/18 09:40:07;;;;;;;1.40;0.90;;;;;;;23.37;42.42;100003.44;4247749;33;33928;-67
2023/05/18 09:42:39;;;;;;;1.50;0.80;;;;;;;23.39;42.39;99995.88;4260469;33;34238;-68
2023/05/18 09:45:22;;;;;;;1.92;0.90;;;;;;;23.38;42.42;100001.53;4261015;33;34176;-67
2023/05/18 09:47:50;;;;;;;2.50;1.15;;;;;;;23.39;42.39;99992.31;4260716;33;33294;-67
2023/05/18 09:50:19;;;;;;;2.30;0.90;;;;;;;23.36;42.41;99996.34;4259595;33;33916;-68
2023/05/18 09:52:48;;;;;;;3.47;1.08;;;;;;;23.36;42.44;99995.47;4260730;33;34692;-67
2023/05/18 09:55:16;;;;;;;3.95;1.00;;;;;;;23.37;42.47;99991.72;4236008;33;34047;-68
2023/05/18 09:57:45;;;;;;;2.67;1.00;;;;;;;23.36;42.44;99999.06;4260709;33;33620;-67
2023/05/18 10:00:17;;;;;;;2.10;0.90;;;;;;;23.36;42.43;99999.06;4247959;33;34727;-67
2023/05/18 10:02:47;;;;;;;1.75;0.88;;;;;;;23.36;42.45;99990.03;4247829;33;34034;-68
2023/05/18 10:05:22;;;;;;;1.23;0.90;;;;;;;23.35;42.43;100007.41;4236399;33;34321;-68
2023/05/18 10:07:50;;;;;;;1.00;0.70;;;;;;;23.36;42.42;99990.03;4247633;33;34542;-67
2023/05/18 10:10:21;;;;;;;1.67;0.80;;;;;;;23.35;42.42;99985.63;4260635;33;34657;-68
2023/05/18 10:12:52;;;;;;;1.23;0.80;;;;;;;23.35;42.43;99980.19;4260486;33;34856;-67
2023/05/18 10:15:21;;;;;;;1.75;0.80;;;;;;;23.34;42.43;99981.25;4260501;33;34116;-67
2023/05/18 10:17:50;;;;;;;1.55;0.85;;;;;;;23.34;42.42;99978.53;4260606;33;33416;-67
2023/05/18 10:20:19;;;;;;;1.08;0.77;;;;;;;23.34;42.41;99990.25;4247740;33;33830;-67
2023/05/18 10:22:47;;;;;;;0.75;0.75;;;;;;;23.34;42.39;99981.25;4247470;33;34787;-67
2023/05/18 10:25:19;;;;;;;1.58;0.85;;;;;;;23.33;42.40;99985.87;4247787;33;34693;-67
2023/05/18 10:27:48;;;;;;;1.87;0.70;;;;;;;23.32;42.42;99992.38;4259303;33;33588;-67
2023/05/18 10:30:19;;;;;;;1.67;0.80;;;;;;;23.33;42.40;99990.50;4260284;33;33632;-66
2023/05/18 10:32:46;;;;;;;2.83;0.80;;;;;;;23.33;42.40;99998.66;4260438;33;34877;-67
2023/05/18 10:35:14;;;;;;;1.23;0.85;;;;;;;23.33;42.38;99995.94;4260544;33;33756;-68
2023/05/18 10:37:46;;;;;;;0.98;0.80;;;;;;;23.33;42.36;99990.50;4260533;33;34046;-67
2023/05/18 10:40:14;;;;;;;0.85;0.70;;;;;;;23.31;42.38;99990.69;4260415;33;33864;-67
2023/05/18 10:42:42;;;;;;;1.15;0.80;;;;;;;23.33;42.35;99990.50;4235768;33;34779;-67
2023/05/18 10:45:09;;;;;;;0.95;0.65;;;;;;;23.31;42.35;99984.41;4258617;33;33848;-67
2023/05/18 10:47:41;;;;;;;1.12;0.70;;;;;;;23.31;42.36;99985.25;4247116;33;32890;-67
2023/05/18 10:50:09;;;;;;;0.90;0.70;;;;;;;23.31;42.35;99990.69;4236542;33;33955;-66
2023/05/18 10:52:37;;;;;;;1.05;0.70;;;;;;;23.30;42.35;99985.47;4260603;33;33907;-67
2023/05/18 10:55:05;;;;;;;0.85;0.62;;;;;;;23.29;42.36;99981.91;4260360;33;34404;-66
2023/05/18 10:57:38;;;;;;;2.20;0.70;;;;;;;23.29;42.34;99981.09;4247473;33;34734;-66
2023/05/18 11:00:08;;;;;;;0.57;0.57;;;;;;;23.29;42.35;99978.37;4236263;33;35270;-66
2023/05/18 11:02:41;;;;;;;1.23;0.80;;;;;;;23.29;42.33;99972.91;4235836;33;34151;-67
2023/05/18 11:05:09;;;;;;;0.73;0.45;;;;;;;23.30;42.33;99985.47;4260111;33;34449;-66
2023/05/18 11:07:37;;;;;;;1.08;0.52;;;;;;;23.30;42.33;99974.59;4260348;33;33857;-66
2023/05/18 11:10:09;;;;;;;1.90;0.70;;;;;;;23.30;42.35;99988.19;4260159;33;34505;-66
2023/05/18 11:12:37;;;;;;;2.12;1.00;;;;;;;23.29;42.36;99986.53;4247503;33;34003;-66
2023/05/18 11:15:05;;;;;;;1.12;0.50;;;;;;;23.29;42.35;99989.25;4260297;33;34318;-66
2023/05/18 11:17:32;;;;;;;2.65;0.82;;;;;;;23.28;42.35;99991.16;4260080;33;35058;-66
2023/05/18 11:20:11;;;;;;;1.00;0.60;;;;;;;23.29;42.37;99986.53;4259984;33;34741;-66
2023/05/18 11:22:47;;;;;;;0.95;0.60;;;;;;;23.27;42.39;99989.50;4259925;33;35362;-66
2023/05/18 11:25:27;;;;;;;0.93;0.70;;;;;;;23.28;42.38;99990.31;4260207;33;33524;-67
2023/05/18 11:28:00;;;;;;;1.25;0.70;;;;;;;23.28;42.37;100014.81;4260100;33;33765;-67
2023/05/18 11:30:28;;;;;;;0.50;0.50;;;;;;;23.27;42.39;100021.28;4260305;33;33992;-68
2023/05/18 11:33:08;;;;;;;1.17;0.73;;;;;;;23.27;42.39;100016.72;4260017;33;33993;-67
2023/05/18 11:36:02;;;;;;;1.25;0.80;;;;;;;23.29;42.40;100019.22;4260091;33;34005;-67
2023/05/18 11:39:05;;;;;;;0.75;0.65;;;;;;;23.28;42.45;100020.25;4259061;33;33724;-67
2023/05/18 11:41:34;;;;;;;0.77;0.75;;;;;;;23.27;42.48;100022.16;4245123;33;34420;-67
2023/05/18 11:44:05;;;;;;;2.45;0.90;;;;;;;23.25;42.56;100017.97;4258075;33;34076;-67
2023/05/18 11:46:33;;;;;;;1.35;0.80;;;;;;;23.24;42.61;100022.59;4258122;33;34233;-67